Terminal Aerodrome Forecast
Issued by NWS

Home | Current Version | Previous Version | Text Only | Print | Product List | Glossary On
Versions: 1 2 3 4 5 6 7 8 9 10 11 12
926
FTPA31 PHFO 251729
TAFHKO
TAF
PHKO 251729Z 2518/2618 03005KT P6SM FEW045
     FM252000 21010KT P6SM SCT050
     FM260300 25010KT P6SM BKN050
     FM260600 09005KT P6SM SCT025 SCT050=

USA.gov is the U.S. government's official web portal to all federal, state and local government web resources and services.